createdAt,value
2022-10-12T00:04:27.548Z,75.52
2022-10-12T00:09:31.221Z,75.80
2022-10-12T00:14:37.133Z,76.04
2022-10-12T00:19:42.200Z,75.88
2022-10-12T00:24:45.909Z,76.52
2022-10-12T00:29:49.508Z,76.41
2022-10-12T00:34:54.325Z,76.57
2022-10-12T00:39:58.013Z,76.89
2022-10-12T00:45:01.369Z,77.19
2022-10-12T00:50:16.457Z,77.49
2022-10-12T00:55:22.895Z,77.65
2022-10-12T01:00:26.907Z,77.51
2022-10-12T01:05:31.945Z,77.42
2022-10-12T01:10:35.353Z,77.99
2022-10-12T01:15:43.157Z,77.77
2022-10-12T01:20:58.154Z,77.99
2022-10-12T01:26:33.138Z,78.53
2022-10-12T01:31:44.724Z,78.95
2022-10-12T01:36:54.036Z,78.89
2022-10-12T01:42:01.238Z,78.33
2022-10-12T01:47:06.069Z,78.79
2022-10-12T01:52:31.053Z,78.76
2022-10-12T01:57:47.836Z,79.27
2022-10-12T02:03:03.184Z,78.99
2022-10-12T02:08:14.371Z,79.29
2022-10-12T02:13:21.507Z,79.43
2022-10-12T02:18:26.482Z,79.39
2022-10-12T02:23:30.774Z,79.48
2022-10-12T02:28:37.627Z,79.71
2022-10-12T02:33:47.612Z,79.76
2022-10-12T02:38:56.044Z,79.71
2022-10-12T02:44:03.122Z,79.83
2022-10-12T02:49:11.766Z,79.89
2022-10-12T02:54:16.673Z,79.72
2022-10-12T02:59:20.466Z,79.48
2022-10-12T03:04:25.592Z,78.77
2022-10-12T03:09:29.122Z,78.76
2022-10-12T03:14:34.085Z,78.66
2022-10-12T03:19:40.014Z,78.98
2022-10-12T03:24:43.686Z,79.03
2022-10-12T03:29:47.308Z,79.22
2022-10-12T03:34:52.134Z,79.44
2022-10-12T03:39:55.509Z,79.72
2022-10-12T03:44:59.163Z,79.46
2022-10-12T03:50:03.975Z,79.25
2022-10-12T03:55:08.467Z,79.19
2022-10-12T04:00:13.456Z,79.41
2022-10-12T04:05:18.435Z,79.67
2022-10-12T04:10:21.843Z,79.41
2022-10-12T04:15:25.275Z,79.52
2022-10-12T04:20:30.096Z,79.24
2022-10-12T04:25:33.507Z,78.96
2022-10-12T04:30:36.876Z,79.62
2022-10-12T04:35:41.804Z,79.47
2022-10-12T04:40:47.734Z,79.66
2022-10-12T04:45:56.470Z,79.97
2022-10-12T04:51:01.222Z,79.53
2022-10-12T04:56:05.153Z,79.43
2022-10-12T05:01:08.885Z,78.62
2022-10-12T05:06:13.750Z,79.01
2022-10-12T05:11:17.179Z,79.31
2022-10-12T05:16:20.576Z,79.09
2022-10-12T05:21:25.735Z,78.76
2022-10-12T05:26:29.415Z,78.53
2022-10-12T05:31:33.123Z,78.31
2022-10-12T05:36:39.143Z,78.06
2022-10-12T05:41:44.469Z,77.05
2022-10-12T05:46:47.887Z,77.18
2022-10-12T05:51:52.671Z,77.39
2022-10-12T05:56:56.045Z,77.45
2022-10-12T06:01:59.886Z,77.79
2022-10-12T06:07:04.755Z,77.00
2022-10-12T06:12:09.181Z,76.23
2022-10-12T06:17:13.010Z,75.31
2022-10-12T06:22:17.829Z,75.35
2022-10-12T06:27:21.219Z,74.81
2022-10-12T06:32:24.845Z,74.26
2022-10-12T06:37:49.168Z,73.74
2022-10-12T06:42:58.469Z,73.79
2022-10-12T06:48:02.366Z,73.55
2022-10-12T06:53:07.177Z,72.85
2022-10-12T06:58:10.686Z,72.80
2022-10-12T07:03:15.355Z,72.74
2022-10-12T07:08:20.479Z,73.38
2022-10-12T07:13:23.889Z,72.01
2022-10-12T07:18:27.379Z,71.81
2022-10-12T07:23:34.044Z,71.64
2022-10-12T07:28:39.208Z,71.66
2022-10-12T07:33:42.601Z,70.96
2022-10-12T07:38:48.904Z,70.36
2022-10-12T07:43:56.791Z,69.10
2022-10-12T07:49:00.526Z,67.52
2022-10-12T07:54:05.467Z,66.76
2022-10-12T07:59:09.039Z,65.68
2022-10-12T08:04:13.044Z,63.86
2022-10-12T08:09:18.512Z,63.79
2022-10-12T08:14:22.181Z,63.91
2022-10-12T08:19:25.526Z,63.00
2022-10-12T08:24:30.321Z,61.13
2022-10-12T08:29:34.036Z,57.62
2022-10-12T08:34:37.531Z,57.39
2022-10-12T08:39:42.851Z,55.77
2022-10-12T08:45:10.227Z,57.61
2022-10-12T08:50:19.681Z,55.86
2022-10-12T08:55:30.236Z,52.68
2022-10-12T09:00:36.246Z,54.33
2022-10-12T09:05:45.021Z,52.69
2022-10-12T09:11:00.105Z,53.93
2022-10-12T09:16:07.710Z,54.29
2022-10-12T09:21:17.777Z,54.97
2022-10-12T09:26:34.714Z,54.34
2022-10-12T09:31:53.516Z,54.55
2022-10-12T09:36:57.094Z,54.17
2022-10-12T09:42:02.760Z,54.86
2022-10-12T09:47:08.004Z,54.29
2022-10-12T09:52:13.062Z,54.91
2022-10-12T09:57:24.004Z,55.67
2022-10-12T10:02:28.527Z,55.65
2022-10-12T10:07:34.629Z,56.20
2022-10-12T10:12:45.462Z,55.80
2022-10-12T10:17:53.829Z,56.25
2022-10-12T10:22:57.959Z,56.14
2022-10-12T10:28:25.250Z,56.10
2022-10-12T10:33:32.122Z,56.13
2022-10-12T10:38:55.811Z,56.70
2022-10-12T10:44:01.335Z,56.31
2022-10-12T10:49:08.242Z,56.29
2022-10-12T10:54:17.217Z,56.46
2022-10-12T10:59:30.523Z,56.84
2022-10-12T11:04:38.763Z,57.01
2022-10-12T11:09:45.351Z,56.13
2022-10-12T11:14:53.454Z,54.98
2022-10-12T11:20:07.418Z,54.52
2022-10-12T11:25:19.622Z,55.92
2022-10-12T11:30:27.614Z,54.26
2022-10-12T11:35:35.854Z,55.06
2022-10-12T11:41:34.276Z,54.41
2022-10-12T11:46:18.321Z,54.50
2022-10-12T11:51:21.965Z,54.81
2022-10-12T11:56:28.901Z,54.98
2022-10-12T12:01:48.764Z,53.94
2022-10-12T12:07:24.943Z,53.42
2022-10-12T12:12:30.305Z,51.74
2022-10-12T12:17:36.272Z,51.45
2022-10-12T12:22:51.100Z,51.65
2022-10-12T12:27:57.646Z,51.00
2022-10-12T12:33:04.680Z,50.81
2022-10-12T12:38:25.775Z,50.60
2022-10-12T12:44:03.435Z,49.76
2022-10-12T12:49:27.386Z,49.12
2022-10-12T12:54:31.387Z,49.60
2022-10-12T13:00:12.173Z,50.11
2022-10-12T13:05:43.847Z,50.33
2022-10-12T13:11:01.899Z,50.18
2022-10-12T13:17:09.526Z,50.50
2022-10-12T13:21:51.683Z,50.59
2022-10-12T13:26:59.718Z,51.32
2022-10-12T13:32:12.457Z,51.29
2022-10-12T13:37:18.929Z,51.98
2022-10-12T13:42:28.661Z,51.24
2022-10-12T13:47:34.385Z,52.63
2022-10-12T13:52:39.444Z,51.85
2022-10-12T13:57:46.661Z,52.16
2022-10-12T14:02:56.226Z,52.79
2022-10-12T14:08:07.099Z,53.02
2022-10-12T14:13:15.591Z,53.17
2022-10-12T14:18:37.598Z,54.09
2022-10-12T14:23:47.393Z,53.92
2022-10-12T14:28:51.162Z,53.65
2022-10-12T14:33:55.302Z,54.75
2022-10-12T14:39:14.466Z,55.15
2022-10-12T14:44:20.057Z,55.05
2022-10-12T14:49:25.570Z,55.03
2022-10-12T14:54:30.645Z,55.46
2022-10-12T14:59:34.075Z,55.79
2022-10-12T15:04:37.513Z,55.96
2022-10-12T15:09:42.308Z,56.50
2022-10-12T15:14:46.177Z,56.32
2022-10-12T15:19:51.042Z,56.64
2022-10-12T15:24:56.579Z,56.43
2022-10-12T15:30:00.283Z,56.82
2022-10-12T15:35:15.003Z,57.05
2022-10-12T15:40:22.030Z,57.38
2022-10-12T15:45:27.769Z,57.67
2022-10-12T15:50:37.248Z,58.27
2022-10-12T15:55:42.692Z,58.60
2022-10-12T16:00:46.188Z,59.09
2022-10-12T16:05:49.937Z,59.26
2022-10-12T16:10:54.778Z,59.21
2022-10-12T16:15:58.334Z,59.34
2022-10-12T16:21:01.739Z,59.57
2022-10-12T16:26:09.026Z,60.01
2022-10-12T16:31:15.458Z,60.26
2022-10-12T16:36:19.166Z,60.91
2022-10-12T16:41:24.400Z,61.51
2022-10-12T16:46:27.822Z,61.26
2022-10-12T16:51:31.259Z,61.83
2022-10-12T16:56:39.337Z,62.43
2022-10-12T17:01:43.425Z,62.75
2022-10-12T17:06:46.850Z,62.92
2022-10-12T17:11:51.653Z,63.28
2022-10-12T17:16:57.546Z,63.69
2022-10-12T17:22:04.420Z,64.19
2022-10-12T17:27:10.741Z,64.73
2022-10-12T17:32:14.476Z,64.67
2022-10-12T17:37:18.970Z,64.68
2022-10-12T17:42:23.770Z,64.58
2022-10-12T17:47:27.188Z,64.64
2022-10-12T17:52:30.926Z,64.90
2022-10-12T17:57:38.436Z,65.49
2022-10-12T18:02:41.847Z,66.57
2022-10-12T18:07:45.255Z,67.18
2022-10-12T18:12:50.040Z,67.04
2022-10-12T18:17:54.732Z,67.41
2022-10-12T18:22:58.565Z,67.51
2022-10-12T18:28:03.489Z,67.80
2022-10-12T18:33:06.913Z,67.68
2022-10-12T18:38:10.767Z,68.10
2022-10-12T18:43:16.195Z,68.88
2022-10-12T18:48:19.615Z,69.31
2022-10-12T18:53:27.255Z,69.47
2022-10-12T18:58:32.457Z,69.28
2022-10-12T19:03:35.844Z,70.00
2022-10-12T19:08:39.419Z,70.00
2022-10-12T19:13:44.718Z,70.31
2022-10-12T19:18:48.182Z,70.58
2022-10-12T19:23:51.579Z,70.98
2022-10-12T19:28:57.656Z,71.46
2022-10-12T19:34:02.719Z,71.53
2022-10-12T19:39:09.007Z,71.32
2022-10-12T19:44:14.225Z,71.28
2022-10-12T19:49:19.533Z,70.97
2022-10-12T19:54:22.903Z,71.31
2022-10-12T19:59:27.746Z,71.43
2022-10-12T20:04:31.536Z,72.03
2022-10-12T20:09:34.911Z,72.51
2022-10-12T20:14:40.102Z,72.07
2022-10-12T20:19:43.538Z,71.92
2022-10-12T20:24:47.052Z,72.54
2022-10-12T20:29:53.009Z,72.53
2022-10-12T20:34:57.240Z,72.33
2022-10-12T20:40:00.896Z,72.83
2022-10-12T20:45:06.404Z,72.52
2022-10-12T20:50:10.861Z,72.80
2022-10-12T20:55:14.279Z,73.30
2022-10-12T21:00:19.276Z,73.75
2022-10-12T21:05:22.986Z,72.92
2022-10-12T21:10:26.431Z,73.31
2022-10-12T21:15:31.181Z,73.32
2022-10-12T21:20:34.596Z,73.26
2022-10-12T21:25:38.061Z,73.01
2022-10-12T21:30:43.034Z,73.84
2022-10-12T21:35:46.565Z,73.35
2022-10-12T21:40:50.251Z,73.01
2022-10-12T21:45:55.130Z,72.96
2022-10-12T21:50:58.872Z,73.17
2022-10-12T21:56:06.678Z,73.24
2022-10-12T22:01:14.263Z,73.22
2022-10-12T22:06:19.600Z,73.50
2022-10-12T22:11:27.273Z,73.72
2022-10-12T22:16:32.899Z,74.06
2022-10-12T22:21:37.764Z,74.12
2022-10-12T22:26:41.793Z,73.84
2022-10-12T22:31:46.902Z,74.17
2022-10-12T22:36:52.048Z,74.10
2022-10-12T22:42:00.869Z,74.13
2022-10-12T22:47:06.072Z,74.42
2022-10-12T22:52:09.409Z,74.22
2022-10-12T22:57:13.151Z,73.81
2022-10-12T23:02:18.122Z,73.97
2022-10-12T23:07:21.979Z,74.06
2022-10-12T23:12:25.424Z,74.48
2022-10-12T23:17:30.364Z,74.42
2022-10-12T23:22:33.810Z,74.74
2022-10-12T23:27:37.458Z,75.29
2022-10-12T23:32:42.286Z,74.59
2022-10-12T23:37:45.709Z,74.55
2022-10-12T23:42:49.148Z,74.51
2022-10-12T23:47:54.199Z,74.75
2022-10-12T23:52:57.593Z,75.10
2022-10-12T23:58:01.145Z,74.27
